Time,TemperatureF,DewpointF,PressureIn,WindDirection,WindDirectionDegrees,WindSpeedMPH,WindSpeedGustMPH,Humidity,HourlyPrecipIn,Conditions,Clouds,dailyrainin,SoftwareType,DateUTC
2013-07-22 00:02:00,79.0,68.0,28.17,SSE,157,7.0,8.0,68,0.00,,,0.00,,2013-07-22 05:02:00,
2013-07-22 00:11:00,79.0,68.0,28.17,South,181,6.0,9.0,69,0.00,,,0.00,,2013-07-22 05:11:00,
2013-07-22 00:22:00,78.0,67.0,28.17,South,171,6.0,9.0,70,0.00,,,0.00,,2013-07-22 05:22:00,
2013-07-22 00:32:00,78.0,68.0,28.20,South,188,8.0,10.0,71,0.00,,,0.00,,2013-07-22 05:32:00,
2013-07-22 00:42:00,78.0,68.0,28.20,SSW,193,6.0,10.0,72,0.00,,,0.00,,2013-07-22 05:42:00,
2013-07-22 00:52:00,77.0,68.0,28.20,South,182,5.0,7.0,74,0.00,,,0.00,,2013-07-22 05:52:00,
2013-07-22 01:01:00,77.0,68.0,28.20,South,181,6.0,7.0,75,0.00,,,0.00,,2013-07-22 06:01:00,
2013-07-22 01:11:00,76.0,68.0,28.20,South,190,5.0,7.0,76,0.00,,,0.00,,2013-07-22 06:11:00,
2013-07-22 01:22:00,76.0,68.0,28.20,South,178,5.0,6.0,76,0.00,,,0.00,,2013-07-22 06:22:00,
2013-07-22 01:33:00,76.0,68.0,28.20,South,177,4.0,6.0,77,0.00,,,0.00,,2013-07-22 06:33:00,
2013-07-22 01:43:00,76.0,69.0,28.20,SSE,155,4.0,6.0,79,0.00,,,0.00,,2013-07-22 06:43:00,
2013-07-22 01:52:00,76.0,68.0,28.20,SE,132,3.0,6.0,77,0.00,,,0.00,,2013-07-22 06:52:00,
2013-07-22 02:01:00,76.0,68.0,28.17,SSE,152,4.0,6.0,77,0.00,,,0.00,,2013-07-22 07:01:00,
2013-07-22 02:11:00,76.0,68.0,28.17,SSE,153,4.0,6.0,77,0.00,,,0.00,,2013-07-22 07:11:00,
2013-07-22 02:22:00,76.0,68.0,28.20,SE,146,4.0,4.0,76,0.00,,,0.00,,2013-07-22 07:22:00,
2013-07-22 02:33:00,76.0,68.0,28.17,SE,146,0.0,4.0,77,0.00,,,0.00,,2013-07-22 07:33:00,
2013-07-22 02:43:00,75.0,68.0,28.17,SE,146,4.0,4.0,79,0.00,,,0.00,,2013-07-22 07:43:00,
2013-07-22 02:52:00,75.0,68.0,28.17,South,176,4.0,6.0,80,0.00,,,0.00,,2013-07-22 07:52:00,
2013-07-22 03:01:00,75.0,68.0,28.17,South,176,0.0,4.0,80,0.00,,,0.00,,2013-07-22 08:01:00,
2013-07-22 03:11:00,74.0,68.0,28.17,South,176,0.0,3.0,81,0.00,,,0.00,,2013-07-22 08:11:00,
2013-07-22 03:22:00,74.0,68.0,28.17,South,176,4.0,4.0,83,0.00,,,0.00,,2013-07-22 08:22:00,
2013-07-22 03:32:00,74.0,69.0,28.17,South,176,4.0,5.0,84,0.00,,,0.00,,2013-07-22 08:32:00,
2013-07-22 03:43:00,74.0,69.0,28.17,South,179,5.0,6.0,85,0.00,,,0.00,,2013-07-22 08:43:00,
2013-07-22 03:52:00,74.0,69.0,28.17,South,178,4.0,6.0,84,0.00,,,0.00,,2013-07-22 08:52:00,
2013-07-22 04:02:00,74.0,69.0,28.17,SSW,204,4.0,7.0,84,0.00,,,0.00,,2013-07-22 09:02:00,
2013-07-22 04:11:00,74.0,68.0,28.17,SSW,205,5.0,6.0,83,0.00,,,0.00,,2013-07-22 09:11:00,
2013-07-22 04:22:00,74.0,68.0,28.17,SSW,205,6.0,6.0,83,0.00,,,0.00,,2013-07-22 09:22:00,
2013-07-22 04:33:00,74.0,68.0,28.17,South,190,5.0,6.0,83,0.00,,,0.00,,2013-07-22 09:33:00,
2013-07-22 04:42:00,74.0,69.0,28.17,SSW,194,4.0,6.0,85,0.00,,,0.00,,2013-07-22 09:42:00,
2013-07-22 04:52:00,74.0,70.0,28.17,SSW,194,4.0,5.0,86,0.00,,,0.00,,2013-07-22 09:52:00,
2013-07-22 05:01:00,74.0,70.0,28.17,South,191,0.0,5.0,87,0.00,,,0.00,,2013-07-22 10:01:00,
2013-07-22 05:11:00,73.0,69.0,28.17,South,191,3.0,4.0,87,0.00,,,0.00,,2013-07-22 10:11:00,
2013-07-22 05:22:00,73.0,69.0,28.17,SE,146,4.0,7.0,88,0.00,,,0.00,,2013-07-22 10:22:00,
2013-07-22 05:32:00,73.0,70.0,28.17,South,177,4.0,5.0,89,0.00,,,0.00,,2013-07-22 10:32:00,
2013-07-22 05:43:00,73.0,70.0,28.17,SSE,161,4.0,5.0,89,0.00,,,0.00,,2013-07-22 10:43:00,
2013-07-22 05:52:00,73.0,70.0,28.17,South,186,4.0,6.0,89,0.00,,,0.00,,2013-07-22 10:52:00,
2013-07-22 06:01:00,73.0,70.0,28.17,SSW,192,5.0,5.0,89,0.00,,,0.00,,2013-07-22 11:01:00,
2013-07-22 06:11:00,74.0,71.0,28.17,SSE,157,5.0,7.0,89,0.00,,,0.00,,2013-07-22 11:11:00,
2013-07-22 06:22:00,74.0,71.0,28.17,SSE,167,4.0,6.0,90,0.00,,,0.00,,2013-07-22 11:22:00,
2013-07-22 06:32:00,74.0,71.0,28.17,South,189,6.0,8.0,89,0.00,,,0.00,,2013-07-22 11:32:00,
2013-07-22 06:43:00,74.0,71.0,28.20,South,185,5.0,8.0,89,0.00,,,0.00,,2013-07-22 11:43:00,
2013-07-22 06:52:00,74.0,71.0,28.20,SSW,193,4.0,7.0,89,0.00,,,0.00,,2013-07-22 11:52:00,
2013-07-22 07:02:00,73.0,70.0,28.20,South,187,4.0,7.0,90,0.00,,,0.00,,2013-07-22 12:02:00,
2013-07-22 07:11:00,73.0,70.0,28.20,SSE,157,4.0,7.0,91,0.00,,,0.00,,2013-07-22 12:11:00,
2013-07-22 07:22:00,74.0,71.0,28.20,SSE,168,6.0,6.0,91,0.00,,,0.00,,2013-07-22 12:22:00,
2013-07-22 07:32:00,74.0,71.0,28.20,SSE,159,5.0,7.0,91,0.00,,,0.00,,2013-07-22 12:32:00,
2013-07-22 07:43:00,74.0,71.0,28.20,South,184,6.0,7.0,89,0.00,,,0.00,,2013-07-22 12:43:00,
2013-07-22 07:53:00,75.0,72.0,28.20,South,188,6.0,7.0,89,0.00,,,0.00,,2013-07-22 12:53:00,
2013-07-22 08:01:00,75.0,71.0,28.20,South,179,6.0,10.0,87,0.00,,,0.00,,2013-07-22 13:01:00,
2013-07-22 08:11:00,76.0,71.0,28.20,South,180,8.0,10.0,85,0.00,,,0.00,,2013-07-22 13:11:00,
2013-07-22 08:22:00,76.0,70.0,28.20,South,171,8.0,9.0,83,0.00,,,0.00,,2013-07-22 13:22:00,
2013-07-22 08:32:00,78.0,71.0,28.20,SSW,205,10.0,11.0,80,0.00,,,0.00,,2013-07-22 13:32:00,
2013-07-22 08:43:00,78.0,71.0,28.20,South,184,8.0,11.0,79,0.00,,,0.00,,2013-07-22 13:43:00,
2013-07-22 08:53:00,79.0,71.0,28.20,South,181,11.0,12.0,76,0.00,,,0.00,,2013-07-22 13:53:00,
2013-07-22 09:01:00,79.0,72.0,28.20,SSE,165,11.0,15.0,78,0.00,,,0.00,,2013-07-22 14:01:00,
2013-07-22 09:11:00,79.0,71.0,28.20,SSE,168,10.0,14.0,76,0.00,,,0.00,,2013-07-22 14:11:00,
2013-07-22 09:22:00,79.0,71.0,28.20,South,173,14.0,18.0,76,0.00,,,0.00,,2013-07-22 14:22:00,
2013-07-22 09:32:00,79.0,71.0,28.20,South,180,12.0,16.0,76,0.00,,,0.00,,2013-07-22 14:32:00,
2013-07-22 09:43:00,80.0,71.0,28.20,South,171,13.0,17.0,73,0.00,,,0.00,,2013-07-22 14:43:00,
2013-07-22 09:53:00,81.0,71.0,28.20,South,173,12.0,15.0,72,0.00,,,0.00,,2013-07-22 14:53:00,
2013-07-22 10:01:00,83.0,70.0,28.20,SSW,199,14.0,15.0,65,0.00,,,0.00,,2013-07-22 15:01:00,
2013-07-22 10:11:00,83.0,70.0,28.20,SSE,157,13.0,17.0,65,0.00,,,0.00,,2013-07-22 15:11:00,
2013-07-22 10:22:00,83.0,70.0,28.20,SSE,162,10.0,16.0,66,0.00,,,0.00,,2013-07-22 15:22:00,
2013-07-22 10:33:00,84.0,71.0,28.20,SE,144,12.0,14.0,65,0.00,,,0.00,,2013-07-22 15:33:00,
2013-07-22 10:42:00,87.0,71.0,28.20,SSE,154,11.0,13.0,60,0.00,,,0.00,,2013-07-22 15:42:00,
2013-07-22 10:52:00,87.0,71.0,28.20,SSE,151,10.0,15.0,59,0.00,,,0.00,,2013-07-22 15:52:00,
2013-07-22 11:01:00,86.0,70.0,28.23,SSE,149,7.0,13.0,59,0.00,,,0.00,,2013-07-22 16:01:00,
2013-07-22 11:11:00,87.0,69.0,28.23,SSE,150,13.0,16.0,56,0.00,,,0.00,,2013-07-22 16:11:00,
2013-07-22 11:21:00,87.0,69.0,28.20,South,172,12.0,17.0,56,0.00,,,0.00,,2013-07-22 16:21:00,
2013-07-22 11:43:00,88.0,68.0,28.23,SSW,209,10.0,13.0,51,0.00,,,0.00,,2013-07-22 16:43:00,
2013-07-22 11:52:00,87.0,69.0,28.20,South,182,12.0,16.0,56,0.00,,,0.00,,2013-07-22 16:52:00,
2013-07-22 12:01:00,87.0,69.0,28.20,SSW,193,5.0,14.0,55,0.00,,,0.00,,2013-07-22 17:01:00,
2013-07-22 12:11:00,89.0,68.0,28.20,SSW,210,9.0,13.0,50,0.00,,,0.00,,2013-07-22 17:11:00,
2013-07-22 12:23:00,90.0,68.0,28.20,SSW,213,9.0,16.0,49,0.00,,,0.00,,2013-07-22 17:23:00,
2013-07-22 12:32:00,88.0,68.0,28.20,SSE,164,10.0,16.0,51,0.00,,,0.00,,2013-07-22 17:32:00,
2013-07-22 12:43:00,90.0,68.0,28.20,South,172,12.0,18.0,48,0.00,,,0.00,,2013-07-22 17:43:00,
2013-07-22 12:52:00,90.0,66.0,28.20,SE,140,10.0,18.0,46,0.00,,,0.00,,2013-07-22 17:52:00,
2013-07-22 13:04:00,91.0,67.0,28.20,SW,224,11.0,13.0,45,0.00,,,0.00,,2013-07-22 18:04:00,
2013-07-22 13:13:00,90.0,66.0,28.20,SSE,151,9.0,15.0,46,0.00,,,0.00,,2013-07-22 18:13:00,
2013-07-22 13:23:00,92.0,67.0,28.20,South,187,11.0,17.0,44,0.00,,,0.00,,2013-07-22 18:23:00,
2013-07-22 13:34:00,92.0,68.0,28.20,SSE,166,10.0,16.0,45,0.00,,,0.00,,2013-07-22 18:34:00,
2013-07-22 13:54:00,92.0,68.0,28.20,SE,144,9.0,14.0,45,0.00,,,0.00,,2013-07-22 18:54:00,
2013-07-22 14:04:00,91.0,66.0,28.20,South,172,5.0,14.0,44,0.00,,,0.00,,2013-07-22 19:04:00,
2013-07-22 14:14:00,93.0,66.0,28.20,South,171,10.0,15.0,41,0.00,,,0.00,,2013-07-22 19:14:00,
2013-07-22 14:22:00,95.0,66.0,28.17,SE,136,9.0,15.0,39,0.00,,,0.00,,2013-07-22 19:22:00,
2013-07-22 14:34:00,95.0,66.0,28.17,SSW,213,9.0,15.0,39,0.00,,,0.00,,2013-07-22 19:34:00,
2013-07-22 14:53:00,93.0,66.0,28.17,SSW,196,10.0,14.0,42,0.00,,,0.00,,2013-07-22 19:53:00,
2013-07-22 15:03:00,94.0,67.0,28.17,SSW,197,11.0,13.0,42,0.00,,,0.00,,2013-07-22 20:03:00,
2013-07-22 15:14:00,95.0,66.0,28.17,SE,141,10.0,14.0,39,0.00,,,0.00,,2013-07-22 20:14:00,
2013-07-22 16:11:00,97.0,66.0,28.14,SSW,201,8.0,15.0,36,0.00,,,0.00,,2013-07-22 21:11:00,
2013-07-22 16:32:00,97.0,63.0,28.14,SSE,154,11.0,18.0,33,0.00,,,0.00,,2013-07-22 21:32:00,
2013-07-22 16:43:00,97.0,64.0,28.14,SW,219,10.0,15.0,34,0.00,,,0.00,,2013-07-22 21:43:00,
2013-07-22 16:52:00,97.0,64.0,28.11,SW,216,12.0,13.0,34,0.00,,,0.00,,2013-07-22 21:52:00,
2013-07-22 17:01:00,97.0,65.0,28.11,SE,138,10.0,15.0,35,0.00,,,0.00,,2013-07-22 22:01:00,
2013-07-22 17:11:00,97.0,66.0,28.11,SSE,165,6.0,14.0,36,0.00,,,0.00,,2013-07-22 22:11:00,
2013-07-22 17:22:00,97.0,63.0,28.11,SSE,155,8.0,14.0,33,0.00,,,0.00,,2013-07-22 22:22:00,
2013-07-22 17:32:00,97.0,64.0,28.11,South,186,11.0,15.0,34,0.00,,,0.00,,2013-07-22 22:32:00,
2013-07-22 17:43:00,98.0,63.0,28.11,SSW,198,10.0,12.0,32,0.00,,,0.00,,2013-07-22 22:43:00,
2013-07-22 17:52:00,95.0,65.0,28.11,SSE,151,12.0,15.0,37,0.00,,,0.00,,2013-07-22 22:52:00,
2013-07-22 18:01:00,96.0,65.0,28.11,SSW,206,10.0,13.0,36,0.00,,,0.00,,2013-07-22 23:01:00,
2013-07-22 18:11:00,98.0,66.0,28.11,South,175,10.0,12.0,35,0.00,,,0.00,,2013-07-22 23:11:00,
2013-07-22 18:22:00,97.0,65.0,28.11,SE,134,8.0,12.0,35,0.00,,,0.00,,2013-07-22 23:22:00,
2013-07-22 18:32:00,97.0,65.0,28.11,SSE,150,10.0,12.0,35,0.00,,,0.00,,2013-07-22 23:32:00,
2013-07-22 18:42:00,97.0,65.0,28.11,SSW,199,8.0,12.0,35,0.00,,,0.00,,2013-07-22 23:42:00,
2013-07-22 18:52:00,96.0,64.0,28.11,ESE,123,8.0,13.0,35,0.00,,,0.00,,2013-07-22 23:52:00,
2013-07-22 19:01:00,94.0,63.0,28.11,SSE,158,11.0,13.0,36,0.00,,,0.00,,2013-07-23 00:01:00,
2013-07-22 19:11:00,95.0,64.0,28.11,SSE,156,7.0,14.0,36,0.00,,,0.00,,2013-07-23 00:11:00,
2013-07-22 19:22:00,92.0,64.0,28.11,SSE,158,9.0,13.0,40,0.00,,,0.00,,2013-07-23 00:22:00,
2013-07-22 19:32:00,91.0,63.0,28.11,SE,146,11.0,13.0,39,0.00,,,0.00,,2013-07-23 00:32:00,
2013-07-22 19:43:00,90.0,62.0,28.11,SE,133,11.0,14.0,40,0.00,,,0.00,,2013-07-23 00:43:00,
2013-07-22 19:52:00,91.0,64.0,28.11,South,169,14.0,17.0,41,0.00,,,0.00,,2013-07-23 00:52:00,
2013-07-22 20:01:00,91.0,65.0,28.11,SE,129,11.0,15.0,42,0.00,,,0.00,,2013-07-23 01:01:00,
2013-07-22 20:11:00,90.0,64.0,28.11,SE,134,10.0,15.0,43,0.00,,,0.00,,2013-07-23 01:11:00,
2013-07-22 20:22:00,90.0,65.0,28.11,SE,138,9.0,15.0,44,0.00,,,0.00,,2013-07-23 01:22:00,
2013-07-22 20:32:00,90.0,65.0,28.11,SE,142,9.0,13.0,44,0.00,,,0.00,,2013-07-23 01:32:00,
2013-07-22 20:43:00,89.0,65.0,28.11,SSE,150,10.0,12.0,45,0.00,,,0.00,,2013-07-23 01:43:00,
2013-07-22 20:53:00,88.0,65.0,28.11,SSE,164,7.0,10.0,46,0.00,,,0.00,,2013-07-23 01:53:00,
2013-07-22 21:01:00,88.0,65.0,28.11,SSE,153,9.0,12.0,47,0.00,,,0.00,,2013-07-23 02:01:00,
2013-07-22 21:11:00,88.0,66.0,28.11,SSE,149,7.0,10.0,48,0.00,,,0.00,,2013-07-23 02:11:00,
2013-07-22 21:22:00,87.0,65.0,28.11,SE,143,8.0,9.0,48,0.00,,,0.00,,2013-07-23 02:22:00,
2013-07-22 21:33:00,88.0,66.0,28.11,SSE,157,8.0,14.0,48,0.00,,,0.00,,2013-07-23 02:33:00,
2013-07-22 21:43:00,87.0,65.0,28.11,SE,136,10.0,13.0,48,0.00,,,0.00,,2013-07-23 02:43:00,
2013-07-22 21:52:00,87.0,65.0,28.14,SE,136,9.0,10.0,48,0.00,,,0.00,,2013-07-23 02:52:00,
2013-07-22 22:01:00,87.0,65.0,28.14,SE,143,10.0,12.0,48,0.00,,,0.00,,2013-07-23 03:01:00,
2013-07-22 22:11:00,87.0,66.0,28.14,SE,138,7.0,10.0,50,0.00,,,0.00,,2013-07-23 03:11:00,
2013-07-22 22:22:00,86.0,66.0,28.14,SSE,151,9.0,10.0,51,0.00,,,0.00,,2013-07-23 03:22:00,
2013-07-22 22:33:00,86.0,66.0,28.14,SE,136,6.0,10.0,52,0.00,,,0.00,,2013-07-23 03:33:00,
2013-07-22 22:43:00,85.0,66.0,28.14,SE,139,7.0,9.0,53,0.00,,,0.00,,2013-07-23 03:43:00,
2013-07-22 22:52:00,85.0,66.0,28.17,South,172,8.0,10.0,54,0.00,,,0.00,,2013-07-23 03:52:00,
2013-07-22 23:01:00,84.0,66.0,28.17,SSE,156,7.0,10.0,55,0.00,,,0.00,,2013-07-23 04:01:00,
2013-07-22 23:11:00,84.0,67.0,28.17,SSE,148,7.0,9.0,56,0.00,,,0.00,,2013-07-23 04:11:00,
2013-07-22 23:21:00,84.0,67.0,28.17,SSE,148,7.0,9.0,56,0.00,,,0.00,,2013-07-23 04:21:00,
2013-07-22 23:32:00,83.0,67.0,28.17,SSE,166,6.0,8.0,58,0.00,,,0.00,,2013-07-23 04:32:00,
2013-07-22 23:42:00,83.0,67.0,28.17,SSE,167,6.0,9.0,59,0.00,,,0.00,,2013-07-23 04:42:00,
2013-07-22 23:53:00,82.0,67.0,28.17,SSE,164,7.0,8.0,60,0.00,,,0.00,,2013-07-23 04:53:00,